Time;durP1;ratioP1;P1;durP2;ratioP2;P2;SDS_P1;SDS_P2;PMS_P1;PMS_P2;Temp;Humidity;BMP_temperature;BMP_pressure;BME280_temperature;BME280_humidity;BME280_pressure;Samples;Min_cycle;Max_cycle;Signal;HPM_P1;HPM_P2
2022/01/05 00:02:20;;;;;;;15.60;3.62;;;;;;;6.58;70.25;98780.98;1748308;80;21046;-60
2022/01/05 00:04:47;;;;;;;7.58;4.03;;;;;;;6.51;70.44;98774.17;1750129;80;21517;-60
2022/01/05 00:07:13;;;;;;;7.53;3.72;;;;;;;6.51;70.51;98778.09;1698301;82;21606;-60
2022/01/05 00:09:40;;;;;;;7.58;4.00;;;;;;;6.60;70.45;98782.16;1720793;81;21058;-59
2022/01/05 00:12:10;;;;;;;9.73;3.65;;;;;;;6.66;70.47;98779.83;1769914;79;21492;-60
2022/01/05 00:14:38;;;;;;;8.03;3.85;;;;;;;6.69;70.42;98774.33;1743535;80;21108;-59
2022/01/05 00:17:04;;;;;;;8.68;4.08;;;;;;;6.68;70.60;98769.23;1762212;79;21065;-62
2022/01/05 00:19:34;;;;;;;8.35;3.80;;;;;;;6.64;70.68;98760.00;1767435;79;21143;-59
2022/01/05 00:21:59;;;;;;;7.37;4.03;;;;;;;6.58;70.94;98750.94;1741255;80;21076;-59
2022/01/05 00:24:25;;;;;;;9.00;3.90;;;;;;;6.54;70.99;98749.57;1738129;80;21079;-59
2022/01/05 00:26:52;;;;;;;7.45;3.75;;;;;;;6.49;71.07;98742.63;1748003;81;20978;-59
2022/01/05 00:29:18;;;;;;;6.53;3.37;;;;;;;6.58;70.97;98733.13;1745385;80;21134;-59
2022/01/05 00:31:45;;;;;;;7.47;4.05;;;;;;;6.62;70.97;98733.19;1741128;80;21089;-59
2022/01/05 00:34:11;;;;;;;6.97;3.60;;;;;;;6.64;71.02;98733.86;1776275;79;21324;-59
2022/01/05 00:36:37;;;;;;;9.70;4.12;;;;;;;6.62;71.16;98729.27;1761890;79;21070;-59
2022/01/05 00:39:04;;;;;;;8.20;3.50;;;;;;;6.59;71.19;98721.70;1757110;79;21050;-59
2022/01/05 00:41:30;;;;;;;7.37;3.85;;;;;;;6.56;71.30;98722.00;1737110;80;22273;-59
2022/01/05 00:43:56;;;;;;;9.65;4.42;;;;;;;6.50;71.30;98724.66;1744216;80;20994;-59
2022/01/05 00:46:23;;;;;;;8.80;3.95;;;;;;;6.44;71.37;98726.05;1716708;80;21127;-59
2022/01/05 00:48:50;;;;;;;7.10;3.70;;;;;;;6.41;71.46;98712.44;1715608;81;20963;-59
2022/01/05 00:51:17;;;;;;;5.95;3.08;;;;;;;6.47;71.51;98710.09;1741954;80;21116;-59
2022/01/05 00:53:44;;;;;;;8.33;3.95;;;;;;;6.56;71.52;98715.47;1741760;80;20981;-59
2022/01/05 00:56:10;;;;;;;9.55;4.25;;;;;;;6.57;71.50;98710.07;1754209;80;21065;-59
2022/01/05 00:58:37;;;;;;;8.45;3.77;;;;;;;6.56;71.64;98703.21;1727238;81;21531;-59
2022/01/05 01:01:03;;;;;;;7.65;4.03;;;;;;;6.54;71.76;98702.53;1749292;80;21068;-59
2022/01/05 01:03:29;;;;;;;7.97;3.90;;;;;;;6.50;71.71;98701.14;1747947;80;21068;-59
2022/01/05 01:05:56;;;;;;;12.53;4.47;;;;;;;6.45;71.87;98694.20;1762258;79;21218;-59
2022/01/05 01:08:23;;;;;;;10.35;4.40;;;;;;;6.47;71.96;98683.13;1759869;79;21082;-59
2022/01/05 01:10:50;;;;;;;7.42;3.70;;;;;;;6.56;71.78;98674.47;1736692;80;21034;-59
2022/01/05 01:13:18;;;;;;;7.95;3.55;;;;;;;6.63;71.71;98678.66;1766884;79;22237;-60
2022/01/05 01:15:47;;;;;;;8.23;3.90;;;;;;;6.67;71.77;98673.48;1757633;79;21071;-62
2022/01/05 01:18:14;;;;;;;7.80;3.98;;;;;;;6.66;71.84;98673.16;1764096;79;22259;-60
2022/01/05 01:20:41;;;;;;;7.22;4.20;;;;;;;6.65;71.93;98670.19;1759460;79;21087;-60
2022/01/05 01:23:07;;;;;;;8.23;4.22;;;;;;;6.59;71.91;98659.82;1745796;79;21121;-60
2022/01/05 01:25:34;;;;;;;8.05;4.10;;;;;;;6.56;72.10;98661.40;1745045;80;21115;-59
2022/01/05 01:28:00;;;;;;;8.73;3.52;;;;;;;6.58;72.10;98671.72;1714875;81;20981;-59
2022/01/05 01:30:29;;;;;;;7.87;3.52;;;;;;;6.63;71.98;98662.98;1720621;81;21562;-60
2022/01/05 01:32:55;;;;;;;8.45;4.28;;;;;;;6.66;71.99;98656.17;1727417;81;21061;-60
2022/01/05 01:35:21;;;;;;;6.87;3.70;;;;;;;6.67;71.95;98654.72;1738401;80;21054;-60
2022/01/05 01:37:48;;;;;;;7.25;4.03;;;;;;;6.62;72.05;98650.40;1755589;79;21064;-60
2022/01/05 01:40:14;;;;;;;9.83;3.98;;;;;;;6.58;72.13;98645.58;1767700;80;21069;-60
2022/01/05 01:42:40;;;;;;;7.12;4.20;;;;;;;6.51;72.28;98640.91;1766961;79;21152;-60
2022/01/05 01:45:08;;;;;;;9.18;4.28;;;;;;;6.52;72.36;98640.41;1741245;80;21129;-60
2022/01/05 01:47:36;;;;;;;7.50;3.83;;;;;;;6.59;72.23;98630.23;1766949;79;21078;-60
2022/01/05 01:50:03;;;;;;;7.30;3.05;;;;;;;6.65;72.16;98616.61;1756887;79;21587;-60
2022/01/05 01:52:30;;;;;;;7.75;3.55;;;;;;;6.69;72.09;98616.66;1740524;79;21590;-60
2022/01/05 01:54:56;;;;;;;7.58;4.10;;;;;;;6.66;72.20;98606.02;1741095;80;21159;-61
2022/01/05 01:57:23;;;;;;;12.78;4.12;;;;;;;6.65;72.17;98603.54;1734654;80;21593;-61
2022/01/05 01:59:49;;;;;;;9.73;3.75;;;;;;;6.60;72.16;98590.89;1754933;79;21019;-60
2022/01/05 02:02:16;;;;;;;8.28;4.47;;;;;;;6.60;72.22;98591.37;1759709;79;21011;-60
2022/01/05 02:04:44;;;;;;;9.33;3.83;;;;;;;6.67;72.10;98591.15;1766566;79;21105;-60
2022/01/05 02:07:11;;;;;;;7.42;3.98;;;;;;;6.72;72.03;98590.23;1763989;79;21145;-60
2022/01/05 02:09:40;;;;;;;6.67;3.55;;;;;;;6.74;71.98;98590.94;1740097;80;21060;-60
2022/01/05 02:12:08;;;;;;;8.43;3.77;;;;;;;6.70;71.97;98585.15;1716342;81;21049;-62
2022/01/05 02:14:35;;;;;;;7.92;3.80;;;;;;;6.65;72.05;98584.75;1748569;81;21021;-60
2022/01/05 02:17:10;;;;;;;10.28;3.90;;;;;;;6.60;72.22;98584.84;1748468;80;21539;-60
2022/01/05 02:19:32;;;;;;;7.30;3.75;;;;;;;6.60;72.34;98588.27;1753145;80;21005;-60
2022/01/05 02:21:59;;;;;;;8.15;4.53;;;;;;;6.67;72.17;98585.45;1750977;80;21001;-61
2022/01/05 02:24:25;;;;;;;7.42;3.90;;;;;;;6.71;72.16;98582.08;1740431;80;21575;-60
2022/01/05 02:26:51;;;;;;;8.70;3.55;;;;;;;6.72;72.17;98568.02;1684665;83;21058;-60
2022/01/05 02:29:18;;;;;;;8.48;4.62;;;;;;;6.69;72.21;98570.45;1688612;83;21559;-60
2022/01/05 02:31:45;;;;;;;8.20;4.17;;;;;;;6.67;72.25;98579.38;1730311;80;21219;-60
2022/01/05 02:34:13;;;;;;;10.65;4.08;;;;;;;6.63;72.34;98571.50;1714438;80;21069;-61
2022/01/05 02:36:39;;;;;;;7.00;3.35;;;;;;;6.66;72.26;98577.76;1720882;80;21007;-61
2022/01/05 02:39:05;;;;;;;12.00;4.50;;;;;;;6.70;72.16;98572.08;1713023;82;21066;-60
2022/01/05 02:41:32;;;;;;;6.45;3.85;;;;;;;6.77;72.02;98562.38;1693994;83;21058;-60
2022/01/05 02:43:58;;;;;;;7.50;4.25;;;;;;;6.79;71.91;98552.59;1711346;82;21049;-60
2022/01/05 02:46:25;;;;;;;9.30;4.03;;;;;;;6.75;72.03;98548.13;1729799;80;21065;-60
2022/01/05 02:48:53;;;;;;;9.90;3.58;;;;;;;6.70;71.95;98562.12;1752330;80;20978;-60
2022/01/05 02:51:20;;;;;;;8.85;4.10;;;;;;;6.65;72.08;98554.70;1749908;80;21617;-60
2022/01/05 02:53:46;;;;;;;10.15;4.22;;;;;;;6.67;72.09;98540.18;1711132;82;21050;-61
2022/01/05 02:56:13;;;;;;;8.58;4.12;;;;;;;6.74;71.97;98538.66;1752229;80;21088;-60
2022/01/05 02:58:39;;;;;;;7.78;4.10;;;;;;;6.80;71.74;98534.64;1755311;80;21581;-60
2022/01/05 03:01:06;;;;;;;7.70;4.40;;;;;;;6.77;71.72;98541.45;1751265;80;21069;-60
2022/01/05 03:03:32;;;;;;;7.97;3.77;;;;;;;6.72;71.77;98534.04;1749501;80;21730;-61
2022/01/05 03:06:00;;;;;;;11.00;4.20;;;;;;;6.66;71.90;98538.55;1749688;80;22451;-60
2022/01/05 03:08:27;;;;;;;9.30;4.50;;;;;;;6.62;71.98;98538.48;1686731;83;21207;-60
2022/01/05 03:10:55;;;;;;;8.43;4.67;;;;;;;6.62;71.91;98541.09;1747803;80;21455;-60
2022/01/05 03:13:23;;;;;;;9.33;4.12;;;;;;;6.68;71.81;98537.43;1752798;80;21105;-61
2022/01/05 03:15:51;;;;;;;8.13;4.15;;;;;;;6.74;71.71;98537.36;1741148;80;21030;-60
2022/01/05 03:18:18;;;;;;;6.15;3.55;;;;;;;6.77;71.66;98545.37;1719275;80;21058;-60
2022/01/05 03:20:50;;;;;;;7.33;3.85;;;;;;;6.75;71.52;98547.32;1717414;82;21899;-60
2022/01/05 03:23:13;;;;;;;8.85;4.12;;;;;;;6.69;71.66;98545.63;1714447;81;21097;-60
2022/01/05 03:25:40;;;;;;;10.55;4.50;;;;;;;6.67;71.80;98546.25;1712065;82;21121;-61
2022/01/05 03:28:07;;;;;;;10.05;4.03;;;;;;;6.68;71.76;98543.96;1684755;82;21124;-60
2022/01/05 03:30:34;;;;;;;7.40;4.17;;;;;;;6.73;71.59;98541.42;1728860;81;21133;-60
2022/01/05 03:35:30;;;;;;;6.65;4.00;;;;;;;6.83;71.28;98554.78;1727585;81;21053;-60
2022/01/05 03:37:56;;;;;;;9.43;4.28;;;;;;;6.80;71.26;98545.09;1679873;82;21071;-60
2022/01/05 03:40:22;;;;;;;9.83;4.80;;;;;;;6.79;71.21;98543.44;1724334;81;21061;-60
2022/01/05 03:42:49;;;;;;;8.28;4.37;;;;;;;6.75;71.20;98538.17;1716724;81;21018;-60
2022/01/05 03:45:15;;;;;;;8.48;4.15;;;;;;;6.77;71.14;98542.77;1723133;81;21212;-60
2022/01/05 03:47:42;;;;;;;10.60;4.85;;;;;;;6.81;71.08;98548.06;1704874;82;21057;-60
2022/01/05 03:50:09;;;;;;;8.68;3.95;;;;;;;6.86;71.03;98544.04;1713737;81;21653;-60
2022/01/05 03:52:36;;;;;;;7.00;3.85;;;;;;;6.91;70.87;98547.53;1697929;82;21116;-60
2022/01/05 03:55:07;;;;;;;9.40;4.75;;;;;;;6.91;70.92;98553.23;1693584;82;21642;-61
2022/01/05 03:57:34;;;;;;;8.23;3.98;;;;;;;6.88;70.92;98548.63;1712135;81;21227;-60
2022/01/05 04:00:00;;;;;;;8.30;4.03;;;;;;;6.88;70.89;98547.81;1717941;81;21043;-60
2022/01/05 04:02:26;;;;;;;7.42;3.85;;;;;;;6.88;70.91;98555.17;1725280;81;21054;-60
2022/01/05 04:04:53;;;;;;;7.95;4.00;;;;;;;6.98;70.75;98546.48;1699815;81;21041;-60
2022/01/05 04:07:19;;;;;;;7.55;3.95;;;;;;;7.05;70.51;98529.22;1714421;81;21074;-60
2022/01/05 04:09:47;;;;;;;7.97;4.00;;;;;;;7.06;70.39;98532.16;1715046;82;21080;-60
2022/01/05 04:12:14;;;;;;;7.50;3.85;;;;;;;7.05;70.42;98531.34;1720102;82;21034;-61
2022/01/05 04:14:42;;;;;;;10.88;4.10;;;;;;;7.06;70.36;98525.16;1717493;81;21543;-61
2022/01/05 04:17:08;;;;;;;7.47;3.85;;;;;;;7.04;70.32;98529.72;1697194;82;21114;-60
2022/01/05 04:19:35;;;;;;;6.30;3.12;;;;;;;7.09;70.40;98521.41;1714015;81;21527;-61
2022/01/05 04:22:02;;;;;;;7.67;3.45;;;;;;;7.18;70.31;98521.86;1702142;82;21060;-60
2022/01/05 04:24:29;;;;;;;6.35;3.27;;;;;;;7.24;70.22;98523.05;1702872;81;21915;-60
2022/01/05 04:26:55;;;;;;;6.83;3.37;;;;;;;7.25;70.25;98522.09;1708722;81;21046;-61
2022/01/05 04:29:21;;;;;;;8.10;3.90;;;;;;;7.20;70.38;98514.67;1725193;81;21078;-60
2022/01/05 04:31:48;;;;;;;10.15;3.85;;;;;;;7.19;70.56;98520.87;1699180;81;21117;-61
2022/01/05 04:34:14;;;;;;;7.40;3.58;;;;;;;7.18;70.67;98530.20;1711208;81;21113;-60
2022/01/05 04:36:40;;;;;;;10.95;4.15;;;;;;;7.20;70.75;98529.06;1715625;81;21031;-60
2022/01/05 04:39:07;;;;;;;8.50;4.33;;;;;;;7.29;70.72;98524.73;1701330;82;21058;-60
2022/01/05 04:41:33;;;;;;;6.08;3.55;;;;;;;7.34;70.64;98520.38;1707499;81;21075;-60
2022/01/05 04:43:59;;;;;;;7.30;3.60;;;;;;;7.34;70.74;98523.81;1700015;81;21198;-60
2022/01/05 04:46:26;;;;;;;8.75;3.85;;;;;;;7.32;70.86;98540.64;1713524;81;21145;-61
2022/01/05 04:48:52;;;;;;;8.95;3.92;;;;;;;7.29;70.91;98551.39;1697386;82;21066;-61
2022/01/05 04:51:18;;;;;;;10.25;3.80;;;;;;;7.31;71.00;98555.98;1709303;82;21033;-61
2022/01/05 04:53:45;;;;;;;6.92;3.33;;;;;;;7.39;70.84;98552.16;1713994;81;21568;-61
2022/01/05 04:56:11;;;;;;;7.05;3.40;;;;;;;7.48;70.76;98549.98;1699237;83;21142;-61
2022/01/05 04:58:37;;;;;;;9.78;3.98;;;;;;;7.55;70.70;98531.39;1696201;82;21351;-61
2022/01/05 05:01:04;;;;;;;7.17;3.55;;;;;;;7.58;70.63;98534.19;1715316;81;21054;-61
2022/01/05 05:03:30;;;;;;;8.23;3.83;;;;;;;7.58;70.53;98527.17;1721670;82;21058;-60
2022/01/05 05:05:56;;;;;;;6.72;3.52;;;;;;;7.59;70.44;98534.03;1717254;81;21516;-60
2022/01/05 05:08:24;;;;;;;6.90;3.20;;;;;;;7.63;70.38;98535.40;1716184;81;21055;-60
2022/01/05 05:10:51;;;;;;;7.65;3.72;;;;;;;7.73;70.25;98535.80;1718022;82;21150;-60
2022/01/05 05:13:17;;;;;;;8.30;3.62;;;;;;;7.78;70.11;98537.48;1721946;81;21074;-60
2022/01/05 05:15:44;;;;;;;9.35;3.80;;;;;;;7.76;70.08;98540.24;1703824;82;21042;-60
2022/01/05 05:18:10;;;;;;;7.95;4.22;;;;;;;7.76;69.95;98544.66;1724840;81;21015;-60
2022/01/05 05:20:37;;;;;;;7.12;3.90;;;;;;;7.72;69.96;98533.67;1724832;81;21058;-60
2022/01/05 05:23:03;;;;;;;9.13;4.33;;;;;;;7.74;69.95;98521.25;1722750;81;21212;-61
2022/01/05 05:25:30;;;;;;;8.08;3.60;;;;;;;7.84;69.72;98524.29;1711770;81;21105;-60
2022/01/05 05:27:57;;;;;;;10.08;3.77;;;;;;;7.89;69.52;98516.30;1690877;82;21119;-59
2022/01/05 05:33:17;;;;;;;9.50;4.08;;;;;;;7.87;69.40;98531.35;1850130;74;22515;-58
2022/01/05 05:35:43;;;;;;;7.22;3.75;;;;;;;7.82;69.37;98553.23;1849234;76;21026;-60
2022/01/05 05:38:11;;;;;;;7.70;4.10;;;;;;;7.81;69.25;98554.20;1849355;75;21128;-60
2022/01/05 05:40:38;;;;;;;6.78;3.95;;;;;;;7.88;69.07;98555.23;1825531;76;21043;-60
2022/01/05 05:43:04;;;;;;;6.12;3.27;;;;;;;7.96;68.81;98557.93;1849590;75;21065;-60
2022/01/05 05:45:31;;;;;;;7.30;3.27;;;;;;;8.03;68.53;98558.64;1856961;75;20967;-61
2022/01/05 05:47:57;;;;;;;9.33;3.52;;;;;;;8.06;68.30;98566.20;1861587;75;21018;-60
2022/01/05 05:50:24;;;;;;;7.62;3.60;;;;;;;8.07;68.15;98573.07;1857490;75;21112;-60
2022/01/05 05:52:50;;;;;;;8.40;3.35;;;;;;;8.05;67.80;98558.00;1819210;75;21501;-61
2022/01/05 05:55:17;;;;;;;6.53;3.40;;;;;;;8.09;67.76;98577.70;1819093;76;21065;-61
2022/01/05 05:57:43;;;;;;;7.70;3.55;;;;;;;8.14;67.29;98566.27;1845731;75;21043;-60
2022/01/05 06:00:11;;;;;;;5.45;2.77;;;;;;;8.30;66.87;98575.55;1822115;77;21389;-60
2022/01/05 06:02:37;;;;;;;6.78;2.98;;;;;;;8.40;66.55;98582.50;1844749;76;21052;-60
2022/01/05 06:05:04;;;;;;;8.88;3.92;;;;;;;8.44;66.45;98573.38;1854696;75;21573;-59
2022/01/05 06:07:31;;;;;;;6.05;2.70;;;;;;;8.44;66.46;98586.02;1848917;76;21093;-59
2022/01/05 06:09:59;;;;;;;9.95;3.33;;;;;;;8.43;66.04;98579.12;1842094;75;21061;-59
2022/01/05 06:12:26;;;;;;;6.30;2.92;;;;;;;8.45;66.25;98586.83;1848275;75;21098;-60
2022/01/05 06:14:52;;;;;;;5.60;2.47;;;;;;;8.48;66.19;98572.11;1837397;76;21125;-59
2022/01/05 06:17:19;;;;;;;7.10;3.00;;;;;;;8.57;65.84;98588.22;1818187;77;21030;-59
2022/01/05 06:19:46;;;;;;;6.12;2.90;;;;;;;8.63;65.72;98602.03;1853856;75;21807;-60
2022/01/05 06:22:12;;;;;;;6.60;3.30;;;;;;;8.62;65.50;98606.11;1822810;76;21549;-59
2022/01/05 06:24:42;;;;;;;5.60;2.40;;;;;;;8.62;65.43;98613.98;1828968;75;21107;-59
2022/01/05 06:27:09;;;;;;;6.35;3.33;;;;;;;8.60;65.46;98594.96;1817689;77;21070;-60
2022/01/05 06:29:39;;;;;;;6.67;3.80;;;;;;;8.58;65.49;98577.27;1837122;76;21535;-60
2022/01/05 06:32:06;;;;;;;6.03;3.22;;;;;;;8.57;65.49;98603.94;1822342;76;21066;-61
2022/01/05 06:34:33;;;;;;;6.12;3.08;;;;;;;8.64;65.39;98599.75;1858578;76;21089;-60
2022/01/05 06:37:00;;;;;;;6.85;2.92;;;;;;;8.73;65.05;98629.47;1862910;75;21938;-60
2022/01/05 06:39:26;;;;;;;6.65;3.02;;;;;;;8.77;64.82;98618.17;1850133;75;22369;-60
2022/01/05 06:41:52;;;;;;;6.45;2.87;;;;;;;8.77;64.94;98619.48;1864237;76;21011;-61
2022/01/05 06:44:20;;;;;;;6.95;3.08;;;;;;;8.75;64.78;98628.81;1813554;77;21162;-61
2022/01/05 06:46:47;;;;;;;6.67;3.10;;;;;;;8.73;64.89;98631.59;1851934;76;21534;-60
2022/01/05 06:49:14;;;;;;;8.43;3.10;;;;;;;8.71;64.87;98628.80;1841166;75;21107;-61
2022/01/05 06:51:40;;;;;;;5.80;2.77;;;;;;;8.69;64.93;98625.48;1821562;77;21361;-60
2022/01/05 06:54:06;;;;;;;11.68;2.60;;;;;;;8.70;64.97;98624.03;1849524;75;21050;-60
2022/01/05 06:56:33;;;;;;;5.75;2.67;;;;;;;8.79;64.61;98632.77;1847217;77;21009;-60
2022/01/05 06:58:59;;;;;;;5.87;2.70;;;;;;;8.86;64.56;98632.97;1838817;77;21511;-60
2022/01/05 07:01:26;;;;;;;5.22;2.22;;;;;;;8.84;64.50;98631.84;1819618;75;20992;-61
2022/01/05 07:03:52;;;;;;;6.47;2.98;;;;;;;8.84;64.61;98625.75;1809418;78;21017;-60
2022/01/05 07:06:18;;;;;;;6.17;2.58;;;;;;;8.84;64.44;98628.37;1842981;75;20994;-60
2022/01/05 07:08:45;;;;;;;8.13;3.20;;;;;;;8.83;64.58;98645.92;1848554;75;21077;-60
2022/01/05 07:11:12;;;;;;;6.33;2.85;;;;;;;8.82;64.73;98631.64;1822582;77;21113;-60
2022/01/05 07:13:38;;;;;;;4.47;2.30;;;;;;;8.85;64.69;98639.21;1842606;75;21457;-59
2022/01/05 07:16:05;;;;;;;6.90;2.80;;;;;;;8.96;64.64;98633.71;1814818;77;21190;-60
2022/01/05 07:18:31;;;;;;;6.95;3.02;;;;;;;9.03;64.40;98634.73;1856622;76;21650;-60
2022/01/05 07:20:58;;;;;;;6.58;2.72;;;;;;;9.06;64.45;98647.54;1855183;75;20992;-60
2022/01/05 07:23:24;;;;;;;6.72;3.08;;;;;;;9.08;64.28;98661.81;1852943;75;21019;-60
2022/01/05 07:25:50;;;;;;;6.60;2.85;;;;;;;9.06;64.40;98663.28;1848456;75;21023;-59
2022/01/05 07:28:17;;;;;;;7.20;2.65;;;;;;;9.04;64.23;98660.46;1839676;77;21245;-60
2022/01/05 07:30:43;;;;;;;6.00;3.02;;;;;;;9.06;64.36;98669.00;1838690;75;21034;-59
2022/01/05 07:33:10;;;;;;;7.20;2.67;;;;;;;9.06;64.44;98669.00;1856903;76;21663;-60
2022/01/05 07:35:36;;;;;;;6.30;2.42;;;;;;;9.11;64.34;98672.81;1822241;75;21067;-60
2022/01/05 07:38:03;;;;;;;6.03;3.02;;;;;;;9.22;64.32;98664.34;1847113;77;21026;-60
2022/01/05 07:40:30;;;;;;;6.10;2.60;;;;;;;9.24;64.07;98660.56;1819549;77;21035;-60
2022/01/05 07:42:56;;;;;;;6.30;2.70;;;;;;;9.26;64.11;98652.54;1850941;76;21050;-59
2022/01/05 07:45:23;;;;;;;6.90;2.75;;;;;;;9.24;64.19;98651.37;1851290;75;21580;-60
2022/01/05 07:47:49;;;;;;;6.30;2.90;;;;;;;9.24;64.30;98644.81;1853166;77;21008;-60
2022/01/05 07:50:15;;;;;;;5.85;2.80;;;;;;;9.24;64.47;98649.25;1847541;75;21779;-62
2022/01/05 07:52:44;;;;;;;5.83;2.50;;;;;;;9.23;64.57;98644.97;1854533;76;21056;-60
2022/01/05 07:55:11;;;;;;;6.33;2.30;;;;;;;9.32;64.49;98653.23;1847085;75;21046;-60
2022/01/05 07:57:38;;;;;;;4.95;2.50;;;;;;;9.42;64.32;98663.12;1848879;75;21034;-60
2022/01/05 08:00:07;;;;;;;5.55;2.47;;;;;;;9.46;64.23;98654.44;1823346;77;21058;-61
2022/01/05 08:02:34;;;;;;;7.22;2.85;;;;;;;9.48;64.39;98660.34;1850022;75;21027;-60
2022/01/05 08:05:00;;;;;;;5.05;2.45;;;;;;;9.51;64.39;98663.16;1822884;76;21776;-61
2022/01/05 08:07:27;;;;;;;6.35;3.05;;;;;;;9.53;64.35;98675.63;1830645;76;21086;-61
2022/01/05 08:09:53;;;;;;;6.80;3.00;;;;;;;9.54;64.42;98676.78;1851337;76;21021;-62
2022/01/05 08:12:20;;;;;;;6.58;2.85;;;;;;;9.56;64.36;98684.01;1826241;77;20996;-61
2022/01/05 08:14:48;;;;;;;5.78;2.58;;;;;;;9.62;64.38;98689.95;1854673;75;21228;-62
2022/01/05 08:17:14;;;;;;;5.15;2.58;;;;;;;9.76;64.15;98701.65;1820018;76;21051;-62
2022/01/05 08:19:42;;;;;;;5.33;2.70;;;;;;;9.86;64.06;98706.78;1847983;75;21544;-62
2022/01/05 08:22:09;;;;;;;5.92;2.60;;;;;;;9.91;64.00;98713.69;1852827;76;21647;-62
2022/01/05 08:24:36;;;;;;;7.35;2.92;;;;;;;9.95;63.98;98715.03;1852962;75;21360;-61
2022/01/05 08:27:03;;;;;;;5.28;2.52;;;;;;;9.96;63.97;98725.85;1857619;75;20985;-62
2022/01/05 08:29:30;;;;;;;6.40;2.85;;;;;;;10.01;64.04;98721.44;1823415;77;21100;-62
2022/01/05 08:32:02;;;;;;;7.45;3.02;;;;;;;10.06;64.08;98721.78;1846269;75;21015;-62
2022/01/05 08:34:25;;;;;;;7.85;3.10;;;;;;;10.11;64.02;98710.80;1849418;76;21109;-60
2022/01/05 08:36:51;;;;;;;9.40;2.58;;;;;;;10.24;63.93;98719.04;1856343;76;20985;-62
2022/01/05 08:39:18;;;;;;;6.42;2.80;;;;;;;10.39;63.52;98717.45;1830783;77;21023;-62
2022/01/05 08:41:44;;;;;;;6.37;2.65;;;;;;;10.54;63.26;98723.36;1857343;76;21051;-62
2022/01/05 08:44:11;;;;;;;12.70;3.27;;;;;;;10.59;63.13;98715.80;1851418;76;21027;-64
2022/01/05 08:46:38;;;;;;;6.58;3.27;;;;;;;10.64;62.97;98716.63;1858014;75;21070;-62
2022/01/05 08:49:04;;;;;;;5.55;3.20;;;;;;;10.68;62.73;98724.55;1846468;75;21046;-62
2022/01/05 08:51:30;;;;;;;6.10;3.22;;;;;;;10.70;62.64;98714.67;1854256;76;21049;-62
2022/01/05 08:53:58;;;;;;;5.97;3.22;;;;;;;10.70;62.54;98708.91;1792039;78;21218;-62
2022/01/05 08:56:25;;;;;;;5.55;3.00;;;;;;;10.71;62.71;98711.06;1752040;79;21143;-62
2022/01/05 08:58:51;;;;;;;6.30;2.83;;;;;;;10.78;62.69;98708.91;1818988;77;21865;-63
2022/01/05 09:01:17;;;;;;;8.80;3.58;;;;;;;10.91;62.46;98693.95;1777605;78;21054;-62
2022/01/05 09:03:44;;;;;;;6.45;2.90;;;;;;;11.01;62.19;98703.45;1812419;78;21485;-62
2022/01/05 09:06:10;;;;;;;6.30;2.80;;;;;;;11.06;62.05;98710.36;1775447;78;21490;-62
2022/01/05 09:08:38;;;;;;;6.12;3.22;;;;;;;11.08;61.91;98707.90;1811316;77;21289;-62
2022/01/05 09:11:07;;;;;;;6.30;3.37;;;;;;;11.12;61.71;98718.91;1813788;77;21014;-62
2022/01/05 09:13:35;;;;;;;7.28;3.22;;;;;;;11.11;61.49;98708.05;1809299;77;21575;-62
2022/01/05 09:16:02;;;;;;;7.10;3.20;;;;;;;11.09;61.48;98724.51;1808893;78;21586;-62
2022/01/05 09:18:29;;;;;;;5.90;2.65;;;;;;;11.05;61.48;98711.36;1810610;77;21145;-63
2022/01/05 09:20:56;;;;;;;7.78;3.33;;;;;;;11.02;61.72;98713.01;1799627;78;21022;-63
2022/01/05 09:23:22;;;;;;;5.62;2.65;;;;;;;11.01;61.76;98711.35;1782475;77;21045;-62
2022/01/05 09:25:48;;;;;;;5.95;3.12;;;;;;;11.02;61.75;98713.01;1808626;78;21086;-65
2022/01/05 09:28:15;;;;;;;7.62;3.22;;;;;;;11.12;61.61;98710.52;1781454;78;21073;-63
2022/01/05 09:30:45;;;;;;;6.87;3.27;;;;;;;11.22;61.53;98718.23;1811217;77;23358;-63
2022/01/05 09:33:10;;;;;;;6.85;3.70;;;;;;;11.24;61.26;98724.14;1793745;78;21109;-63
2022/01/05 09:35:37;;;;;;;7.28;3.47;;;;;;;11.27;61.00;98731.72;1799225;78;20996;-62
2022/01/05 09:43:16;;;;;;;7.08;3.05;;;;;;;11.33;61.02;98719.67;1797962;79;21215;-62
2022/01/05 09:46:05;;;;;;;8.05;3.33;;;;;;;11.32;60.66;98724.13;1794889;78;21037;-63
2022/01/05 09:49:00;;;;;;;7.80;3.27;;;;;;;11.32;60.87;98731.22;1784584;78;21033;-63
2022/01/05 09:51:26;;;;;;;7.20;3.05;;;;;;;11.30;61.10;98727.94;1784881;78;21159;-62
2022/01/05 09:53:52;;;;;;;5.83;2.67;;;;;;;11.34;60.83;98728.73;1788193;79;21073;-62
2022/01/05 09:56:19;;;;;;;6.28;3.33;;;;;;;11.47;60.69;98733.48;1777819;78;21127;-62
2022/01/05 09:58:45;;;;;;;5.55;2.80;;;;;;;11.53;60.66;98739.88;1785780;79;21073;-61
2022/01/05 10:01:11;;;;;;;6.40;3.45;;;;;;;11.52;59.95;98752.23;1779776;78;21065;-62
2022/01/05 10:03:38;;;;;;;5.70;2.87;;;;;;;11.54;59.87;98766.55;1761840;79;21093;-62
2022/01/05 10:06:04;;;;;;;5.78;2.75;;;;;;;11.55;59.49;98764.73;1763043;79;21022;-63
2022/01/05 10:08:31;;;;;;;9.78;3.20;;;;;;;11.55;59.22;98757.67;1796929;78;21133;-63
2022/01/05 10:10:58;;;;;;;7.33;3.37;;;;;;;11.54;59.32;98762.60;1790233;79;21065;-62
2022/01/05 10:13:24;;;;;;;5.92;3.35;;;;;;;11.55;59.56;98770.00;1793987;79;21027;-62
2022/01/05 10:15:51;;;;;;;6.03;2.92;;;;;;;11.53;59.34;98772.80;1812242;77;21093;-62
2022/01/05 10:18:19;;;;;;;6.42;2.77;;;;;;;11.52;59.38;98781.70;1772911;78;21053;-62
2022/01/05 10:20:57;;;;;;;6.37;3.60;;;;;;;11.49;59.32;98782.85;1775131;78;21101;-62
2022/01/05 10:23:39;;;;;;;5.67;2.87;;;;;;;11.46;59.37;98780.55;1783234;80;21011;-63
2022/01/05 10:26:32;;;;;;;6.92;3.17;;;;;;;11.43;59.54;98780.06;1753688;80;21695;-62
2022/01/05 10:29:04;;;;;;;8.18;3.35;;;;;;;11.41;59.38;98784.69;1785726;78;21771;-63
2022/01/05 10:31:37;;;;;;;7.03;3.12;;;;;;;11.38;59.44;98786.33;1794046;78;21010;-62
2022/01/05 10:34:25;;;;;;;5.80;2.98;;;;;;;11.42;59.38;98785.84;1795589;78;21180;-62
2022/01/05 10:36:55;;;;;;;5.70;3.02;;;;;;;11.51;59.09;98789.27;1789550;77;21603;-62
2022/01/05 10:39:42;;;;;;;7.90;3.22;;;;;;;11.52;58.86;98787.79;1793794;78;21144;-61
2022/01/05 10:42:13;;;;;;;5.72;2.83;;;;;;;11.44;58.66;98781.72;1817610;78;21082;-62
2022/01/05 10:44:46;;;;;;;7.20;2.85;;;;;;;11.37;58.81;98785.52;1771067;78;21050;-62
2022/01/05 10:47:15;;;;;;;6.47;2.80;;;;;;;11.32;58.48;98788.64;1797680;78;21146;-62
2022/01/05 10:49:42;;;;;;;7.17;2.83;;;;;;;11.30;58.73;98782.73;1796524;78;21065;-62
2022/01/05 10:52:33;;;;;;;8.38;2.87;;;;;;;11.25;58.23;98786.36;1777727;78;21551;-62
2022/01/05 10:55:16;;;;;;;5.40;3.05;;;;;;;11.23;57.89;98779.59;1779620;78;21119;-62
2022/01/05 10:58:03;;;;;;;7.33;3.15;;;;;;;11.20;58.19;98772.88;1746615;79;22157;-63
2022/01/05 11:00:43;;;;;;;5.75;2.72;;;;;;;11.20;58.04;98774.19;1747004;80;22172;-61
2022/01/05 11:03:39;;;;;;;7.33;3.40;;;;;;;11.17;57.89;98782.91;1773273;79;21126;-61
2022/01/05 11:06:16;;;;;;;5.72;2.60;;;;;;;11.15;58.19;98780.45;1789185;79;21038;-62
2022/01/05 11:09:00;;;;;;;6.45;2.70;;;;;;;11.11;58.19;98770.75;1780236;78;21744;-63
2022/01/05 11:11:43;;;;;;;6.95;3.12;;;;;;;11.09;58.20;98780.59;1780463;79;21563;-61
2022/01/05 11:14:12;;;;;;;6.35;3.15;;;;;;;11.07;58.04;98792.30;1773217;79;23256;-62
2022/01/05 11:16:44;;;;;;;7.42;3.40;;;;;;;11.05;58.23;98787.69;1777760;78;20960;-62
2022/01/05 11:19:19;;;;;;;6.78;3.60;;;;;;;11.05;58.40;98793.77;1772872;78;21085;-61
2022/01/05 11:22:11;;;;;;;5.40;2.63;;;;;;;11.05;58.55;98798.22;1778803;79;21360;-62
2022/01/05 11:24:45;;;;;;;6.92;3.12;;;;;;;11.06;58.66;98798.06;1786382;79;21606;-62
2022/01/05 11:27:14;;;;;;;6.67;3.25;;;;;;;11.08;58.63;98793.95;1758708;78;21065;-62
2022/01/05 11:29:41;;;;;;;6.05;3.00;;;;;;;11.11;58.66;98800.17;1782649;78;22507;-62
2022/01/05 11:32:10;;;;;;;5.62;2.83;;;;;;;11.18;58.60;98797.23;1783511;78;21025;-62
2022/01/05 11:34:37;;;;;;;6.35;3.15;;;;;;;11.25;58.44;98804.79;1784223;78;21118;-62
2022/01/05 11:37:04;;;;;;;6.58;3.27;;;;;;;11.30;58.22;98806.43;1788901;79;21014;-62
2022/01/05 11:39:32;;;;;;;7.05;3.30;;;;;;;11.31;57.96;98816.45;1779623;79;21079;-62
2022/01/05 11:42:01;;;;;;;7.87;3.58;;;;;;;11.32;57.94;98813.66;1784444;79;21520;-62
2022/01/05 11:44:29;;;;;;;7.67;2.60;;;;;;;11.34;57.90;98825.34;1781574;79;21085;-62
2022/01/05 11:46:56;;;;;;;11.70;3.08;;;;;;;11.34;57.75;98826.66;1818355;77;21347;-62
2022/01/05 11:49:27;;;;;;;6.33;3.17;;;;;;;11.34;57.60;98828.80;1792829;78;21086;-62
2022/01/05 11:51:56;;;;;;;7.05;3.12;;;;;;;11.31;57.76;98822.56;1789032;78;21153;-62
2022/01/05 11:54:26;;;;;;;5.85;3.27;;;;;;;11.31;57.91;98828.31;1800467;78;21108;-62